Dudignac, Argentina
Current Conditions -  °F | °C
As of 11:00 AM on Thursday 30 Oct 2014 (Local Time) from SAEZ Reporting Station
Broken Clouds Broken Clouds  
Wind Chill: 21°   Ceiling: 20000
Heat Index: 21°   Visibility: 6mi
Dew Point: 14°   Wind: 3mph
Humidity: 64%   Direction: 290°WNW
Pressure: 29.85"   Gusts: NA
Location:  35.66°S, 60.72°W
Report Text: SAEZ 301400Z 29003KT 250V020 9999 FEW038 BKN200 21/14 Q1011
Loading
Personal Weather Stations






























Interactive Weather Map
Tropical Storm Tracking
New forecast layout! Learn more

10-Day Weather Forecast

Advertisements
Track Severe Weather on mobile